Terminal Aerodrome Forecast
Issued by NWS Omaha/Valley, NE

Home | Current Version | Previous Version | Graphics & Text | Print | Product List | Glossary On
Versions: 1 2 3 4 5 6 7 8 9 10 11 12 13 14 15 16 17 18 19 20 21 22 23 24 25 26 27
000
FTUS43 KOAX 021102 AAA
TAFOFK
TAF AMD
KOFK 021102Z 0211/0306 15007KT 6SM HZ SKC
      TEMPO 0211/0214 4SM BR
     FM021400 19008KT P6SM SCT250
     FM021900 18013G20KT P6SM SCT250
     FM030000 18009KT P6SM SKC=

USA.gov is the U.S. government's official web portal to all federal, state and local government web resources and services.